Umbarger, Texas
Current Conditions -  °F | °C
As of 10:15 AM on Monday 22 Dec 2014 (Local Time) from KHRX Reporting Station
Clear Clear  
Wind Chill: 42°   Ceiling: Unl
Heat Index: 48°   Visibility: 10mi
Dew Point: 33°   Wind: 17mph
Humidity: 54%   Direction: 10°N
Pressure: 29.77"   Gusts: 28mph
Location:  34.95°N, 102.11°W
Report Text: KHRX 221615Z AUTO 01015G24KT 10SM CLR 09/00 A2977 RMK AO2 T00910003
Loading
Personal Weather Stations






























Interactive Weather Map New forecast layout! Learn more

10-Day Weather Forecast

Advertisements
Track Severe Weather on mobile